Rakov, Belarus
Current Conditions -  °F | °C
As of 7:30 PM on Saturday 25 Oct 2014 (Local Time) from UMMM Reporting Station
Clear Clear  
Wind Chill: 21°   Ceiling: Unl
Heat Index: 30°   Visibility: 6mi
Dew Point: 18°   Wind: 11mph
Humidity: 60%   Direction: 170°S
Pressure: 30.48"   Gusts: NA
Location:  53.97°N, 27.07°E
Report Text: UMMM 251730Z 17005MPS CAVOK M01/M08 Q1032 R12/CLRD60NOSIG RMK QFE754
Loading
Personal Weather Stations






























Interactive Weather Map
Tropical Storm Tracking
New forecast layout! Learn more

10-Day Weather Forecast

Advertisements
Track Severe Weather on mobile